Time;durP1;ratioP1;P1;durP2;ratioP2;P2;SDS_P1;SDS_P2;PMS_P1;PMS_P2;Temp;Humidity;BMP_temperature;BMP_pressure;BME280_temperature;BME280_humidity;BME280_pressure;Samples;Min_cycle;Max_cycle;Signal;HPM_P1;HPM_P2
2022/09/16 00:00:11;;;;;;;2.07;1.87;;;20.20;61.70;21.30;100240.00;;;;5068094;28;20226;-44
2022/09/16 00:02:36;;;;;;;1.53;1.40;;;20.30;61.70;21.30;100243.00;;;;5067172;28;20199;-43
2022/09/16 00:05:02;;;;;;;2.63;1.80;;;20.20;61.50;21.30;100243.00;;;;5068238;28;20171;-43
2022/09/16 00:07:29;;;;;;;1.50;1.40;;;20.30;61.70;21.30;100237.00;;;;5067824;28;20584;-44
2022/09/16 00:09:54;;;;;;;1.70;1.60;;;20.30;61.70;21.30;100244.00;;;;5067792;28;20246;-43
2022/09/16 00:12:20;;;;;;;1.57;1.40;;;20.20;61.70;21.30;100241.00;;;;5068016;28;20185;-44
2022/09/16 00:14:46;;;;;;;1.60;1.50;;;20.20;61.70;21.30;100244.00;;;;5068526;28;20204;-43
2022/09/16 00:17:12;;;;;;;1.67;1.50;;;20.20;61.70;21.30;100226.00;;;;5067701;28;20705;-43
2022/09/16 00:19:38;;;;;;;1.73;1.50;;;20.20;61.60;21.30;100215.00;;;;5068392;28;20285;-41
2022/09/16 00:22:04;;;;;;;1.93;1.53;;;20.20;61.70;21.20;100213.00;;;;5069378;28;20201;-43
2022/09/16 00:24:29;;;;;;;1.93;1.77;;;20.20;61.70;21.20;100218.00;;;;5069350;28;20247;-42
2022/09/16 00:26:55;;;;;;;2.03;1.50;;;20.20;61.70;21.20;100221.00;;;;5068617;28;20582;-44
2022/09/16 00:29:21;;;;;;;1.50;1.40;;;20.20;61.70;21.20;100215.00;;;;5068756;28;20625;-43
2022/09/16 00:31:46;;;;;;;1.80;1.60;;;20.20;61.70;21.20;100221.00;;;;5068063;28;20190;-42
2022/09/16 00:34:12;;;;;;;1.60;1.50;;;20.20;61.80;21.20;100215.00;;;;5067914;28;20203;-42
2022/09/16 00:36:38;;;;;;;1.50;1.40;;;20.20;61.70;21.20;100206.00;;;;5067805;28;20167;-42
2022/09/16 00:39:04;;;;;;;1.60;1.50;;;20.10;61.60;21.20;100226.00;;;;5067722;28;20624;-42
2022/09/16 00:41:32;;;;;;;1.73;1.60;;;20.10;61.70;21.20;100224.00;;;;5067752;28;20189;-42
2022/09/16 00:44:06;;;;;;;1.57;1.47;;;20.10;61.70;21.20;100247.00;;;;5067904;28;20240;-43
2022/09/16 00:46:45;;;;;;;1.87;1.57;;;20.10;61.70;21.20;100233.00;;;;5067297;28;20176;-43
2022/09/16 00:49:20;;;;;;;1.50;1.40;;;20.10;61.70;21.20;100242.00;;;;5067709;28;20601;-43
2022/09/16 00:51:46;;;;;;;1.63;1.53;;;20.10;61.70;21.20;100245.00;;;;5066667;28;20223;-41
2022/09/16 00:54:12;;;;;;;2.20;1.70;;;20.10;61.70;21.10;100243.00;;;;5067815;28;20293;-43
2022/09/16 00:56:39;;;;;;;1.80;1.67;;;20.10;61.70;21.20;100236.00;;;;5066239;28;20509;-43
2022/09/16 00:59:23;;;;;;;1.50;1.40;;;20.10;61.70;21.10;100235.00;;;;5066322;28;20174;-44
2022/09/16 01:01:49;;;;;;;1.47;1.37;;;20.10;61.70;21.10;100228.00;;;;5066432;28;20192;-43
2022/09/16 01:04:22;;;;;;;1.57;1.47;;;20.10;61.70;21.10;100232.00;;;;5066546;28;20238;-44
2022/09/16 01:06:47;;;;;;;1.70;1.60;;;20.10;61.70;21.10;100224.00;;;;5067518;28;20291;-42
2022/09/16 01:09:14;;;;;;;1.57;1.40;;;20.10;61.70;21.10;100235.00;;;;5067344;28;20319;-42
2022/09/16 01:11:40;;;;;;;1.60;1.47;;;20.10;61.70;21.10;100240.00;;;;5068139;28;20674;-44
2022/09/16 01:17:22;;;;;;;1.50;1.40;;;20.00;61.70;21.10;100236.00;;;;5071992;28;20212;-43
2022/09/16 01:20:34;;;;;;;1.40;1.30;;;20.00;61.70;21.10;100247.00;;;;5070348;28;20615;-42
2022/09/16 01:23:25;;;;;;;1.50;1.40;;;20.00;61.70;21.00;100234.00;;;;5035225;28;20201;-41
2022/09/16 01:26:11;;;;;;;1.30;1.20;;;20.00;61.70;21.00;100238.00;;;;5070042;28;20168;-43
2022/09/16 01:28:58;;;;;;;2.00;1.43;;;20.00;61.70;21.00;100240.00;;;;5071391;28;20242;-43
2022/09/16 01:32:11;;;;;;;1.40;1.30;;;20.00;61.70;21.00;100236.00;;;;5070849;28;20211;-42
2022/09/16 01:35:01;;;;;;;1.73;1.40;;;20.00;61.70;21.00;100236.00;;;;5051674;28;20246;-43
2022/09/16 01:38:09;;;;;;;1.80;1.63;;;20.00;61.70;21.00;100236.00;;;;5069696;28;20160;-43
2022/09/16 01:41:05;;;;;;;1.80;1.53;;;20.00;61.70;21.00;100231.00;;;;5069764;28;20169;-44
2022/09/16 01:43:59;;;;;;;1.37;1.27;;;20.00;61.70;21.00;100223.00;;;;5073919;28;20174;-44
2022/09/16 01:46:30;;;;;;;1.50;1.40;;;19.90;61.60;20.70;100218.00;;;;5070272;28;20162;-42
2022/09/16 01:49:09;;;;;;;3.17;1.50;;;20.00;61.70;21.00;100229.00;;;;5070612;28;20253;-42
2022/09/16 01:51:49;;;;;;;2.13;1.60;;;19.90;61.70;20.90;100241.00;;;;5068991;28;20803;-42
2022/09/16 01:54:28;;;;;;;2.03;1.60;;;19.90;61.70;20.90;100235.00;;;;5069531;28;20571;-44
2022/09/16 01:57:24;;;;;;;1.33;1.23;;;19.90;61.70;20.90;100235.00;;;;5069008;28;20894;-41
2022/09/16 01:59:59;;;;;;;1.40;1.30;;;20.00;61.70;20.90;100231.00;;;;5069287;28;20212;-43
2022/09/16 02:02:32;;;;;;;1.50;1.40;;;19.90;61.60;20.90;100235.00;;;;5069970;28;20182;-42
2022/09/16 02:04:58;;;;;;;1.70;1.50;;;19.90;61.70;20.90;100233.00;;;;5070110;28;20165;-43
2022/09/16 02:07:30;;;;;;;1.53;1.43;;;19.90;61.70;20.90;100227.00;;;;5068610;28;20253;-42
2022/09/16 02:09:59;;;;;;;1.47;1.30;;;19.90;61.70;20.90;100228.00;;;;5069240;28;20548;-43
2022/09/16 02:12:29;;;;;;;1.50;1.40;;;19.80;61.70;20.90;100230.00;;;;5070373;28;20531;-43
2022/09/16 02:15:01;;;;;;;1.70;1.40;;;19.90;61.70;20.90;100222.00;;;;5069112;28;20386;-42
2022/09/16 02:17:27;;;;;;;1.57;1.40;;;19.80;61.60;20.90;100221.00;;;;5069648;28;20166;-43
2022/09/16 02:20:13;;;;;;;2.30;1.77;;;19.90;61.70;20.90;100222.00;;;;5068615;28;20535;-44
2022/09/16 02:22:52;;;;;;;1.57;1.43;;;19.80;61.60;20.90;100222.00;;;;5068946;28;20186;-42
2022/09/16 02:25:18;;;;;;;1.43;1.33;;;19.80;61.60;20.80;100217.00;;;;5069063;28;20164;-42
2022/09/16 02:27:45;;;;;;;2.10;1.60;;;19.80;61.60;20.80;100227.00;;;;5067621;28;20252;-43
2022/09/16 02:30:16;;;;;;;2.37;1.53;;;19.80;61.60;20.80;100217.00;;;;5068750;28;20168;-42
2022/09/16 02:32:45;;;;;;;1.63;1.30;;;19.80;61.70;20.80;100208.00;;;;5068805;28;20199;-44
2022/09/16 02:35:16;;;;;;;1.30;1.20;;;19.80;61.60;20.80;100215.00;;;;5068678;28;20166;-43
2022/09/16 02:37:52;;;;;;;1.60;1.50;;;19.80;61.60;20.80;100215.00;;;;5068042;28;20193;-43
2022/09/16 02:40:40;;;;;;;2.13;1.40;;;19.80;61.60;20.80;100212.00;;;;5070626;28;20157;-42
2022/09/16 02:43:06;;;;;;;1.47;1.20;;;19.80;61.70;20.80;100221.00;;;;5068289;28;20276;-43
2022/09/16 02:45:58;;;;;;;1.33;1.23;;;19.80;61.70;20.60;100204.00;;;;5068277;28;20544;-42
2022/09/16 02:48:34;;;;;;;1.50;1.40;;;19.80;61.60;20.80;100208.00;;;;5068838;28;20154;-42
2022/09/16 02:51:15;;;;;;;2.27;1.60;;;19.80;61.70;20.80;100205.00;;;;5053987;28;20197;-43
2022/09/16 02:53:55;;;;;;;1.40;1.30;;;19.70;61.60;20.80;100216.00;;;;5057583;28;20656;-43
2022/09/16 02:56:29;;;;;;;1.57;1.47;;;19.80;61.70;20.80;100206.00;;;;5061543;28;20265;-42
2022/09/16 02:58:55;;;;;;;1.50;1.40;;;19.70;61.60;20.70;100206.00;;;;5054372;28;20197;-44
2022/09/16 03:01:21;;;;;;;1.70;1.50;;;19.70;61.60;20.70;100206.00;;;;5047051;28;20201;-41
2022/09/16 03:03:47;;;;;;;1.50;1.40;;;19.70;61.60;20.70;100205.00;;;;5047503;28;20634;-44
2022/09/16 03:06:20;;;;;;;1.33;1.23;;;19.70;61.60;20.70;100198.00;;;;5054987;28;20180;-42
2022/09/16 03:08:46;;;;;;;1.50;1.40;;;19.70;61.60;20.70;100202.00;;;;5068803;28;20235;-43
2022/09/16 03:11:33;;;;;;;1.20;1.10;;;19.70;61.60;20.70;100205.00;;;;5050841;28;20217;-44
2022/09/16 03:14:11;;;;;;;1.40;1.30;;;19.70;61.60;20.70;100198.00;;;;5068370;28;20182;-44
2022/09/16 03:16:54;;;;;;;1.63;1.50;;;19.70;61.60;20.70;100193.00;;;;5068458;28;20161;-42
2022/09/16 03:19:50;;;;;;;2.67;1.57;;;19.70;61.70;20.70;100189.00;;;;5049627;28;20703;-44
2022/09/16 03:22:47;;;;;;;1.37;1.30;;;19.70;61.60;20.70;100192.00;;;;5066000;28;20193;-43
2022/09/16 03:25:51;;;;;;;2.13;1.50;;;19.70;61.60;20.70;100198.00;;;;5066712;28;20634;-42
2022/09/16 03:28:22;;;;;;;2.70;1.37;;;19.70;61.60;20.70;100181.00;;;;5066964;28;20260;-41
2022/09/16 03:31:19;;;;;;;2.50;1.60;;;19.70;61.60;20.70;100185.00;;;;5051042;28;20218;-42
2022/09/16 03:34:06;;;;;;;1.93;1.70;;;19.70;61.60;20.60;100197.00;;;;5043834;28;20280;-42
2022/09/16 03:36:36;;;;;;;1.90;1.50;;;19.70;61.60;20.60;100199.00;;;;5066592;28;20173;-42
2022/09/16 03:39:02;;;;;;;1.87;1.40;;;19.60;61.50;20.60;100187.00;;;;5049043;28;20228;-43
2022/09/16 03:41:29;;;;;;;1.90;1.63;;;19.60;61.60;20.60;100178.00;;;;5065412;28;20654;-41
2022/09/16 03:43:56;;;;;;;3.27;1.67;;;19.60;61.50;20.60;100198.00;;;;5049014;28;20200;-43
2022/09/16 03:46:22;;;;;;;2.90;1.60;;;19.60;61.50;20.60;100187.00;;;;5065933;28;20177;-43
2022/09/16 03:48:47;;;;;;;1.97;1.30;;;19.60;61.50;20.60;100191.00;;;;5068098;28;20172;-41
2022/09/16 03:51:13;;;;;;;2.17;1.53;;;19.60;61.60;20.60;100193.00;;;;5068497;28;20191;-42
2022/09/16 03:53:39;;;;;;;2.30;1.70;;;19.60;61.70;20.60;100182.00;;;;5068662;28;20205;-42
2022/09/16 03:56:05;;;;;;;3.13;1.80;;;19.60;61.60;20.60;100181.00;;;;5069112;28;20166;-43
2022/09/16 03:58:31;;;;;;;1.83;1.67;;;19.60;61.60;20.60;99934.00;;;;5068707;28;20253;-43
2022/09/16 04:00:57;;;;;;;2.30;1.37;;;19.50;61.50;20.60;100179.00;;;;5069055;28;20163;-42
2022/09/16 04:03:23;;;;;;;3.27;1.63;;;19.60;61.60;20.60;100173.00;;;;5069055;28;20665;-44
2022/09/16 04:05:55;;;;;;;1.70;1.60;;;19.50;61.50;20.60;100181.00;;;;5068857;28;20189;-43
2022/09/16 04:08:21;;;;;;;1.97;1.77;;;19.50;61.60;20.40;100181.00;;;;5068550;28;20173;-43
2022/09/16 04:10:54;;;;;;;1.60;1.50;;;19.50;61.50;20.60;100179.00;;;;5068960;28;20230;-43
2022/09/16 04:13:20;;;;;;;1.83;1.73;;;19.60;61.70;20.60;100175.00;;;;5068900;28;20197;-43
2022/09/16 04:15:46;;;;;;;2.13;1.50;;;19.50;61.50;20.60;100167.00;;;;5068654;28;20178;-42
2022/09/16 04:18:12;;;;;;;1.70;1.60;;;19.50;61.60;20.60;100166.00;;;;5068406;28;20167;-42
2022/09/16 04:20:38;;;;;;;2.43;1.80;;;19.50;61.50;20.60;100171.00;;;;5068298;28;20346;-42
2022/09/16 04:23:04;;;;;;;2.13;1.67;;;19.50;61.60;20.60;100174.00;;;;5068725;28;20641;-42
2022/09/16 04:25:30;;;;;;;2.00;1.80;;;19.50;61.60;20.60;100172.00;;;;5068595;28;20266;-42
2022/09/16 04:27:56;;;;;;;1.70;1.57;;;19.50;61.60;20.60;100170.00;;;;5067327;28;20175;-42
2022/09/16 04:30:21;;;;;;;2.80;1.70;;;19.50;61.60;20.60;100171.00;;;;5068539;28;20173;-43
2022/09/16 04:32:52;;;;;;;1.63;1.43;;;19.50;61.60;20.50;100174.00;;;;5068120;28;20193;-43
2022/09/16 04:35:18;;;;;;;1.77;1.67;;;19.50;61.70;20.50;100169.00;;;;5068450;28;20158;-42
2022/09/16 04:37:44;;;;;;;2.10;1.63;;;19.50;61.70;20.50;100171.00;;;;5068160;28;20181;-43
2022/09/16 04:40:10;;;;;;;2.00;1.73;;;19.50;61.70;20.50;100172.00;;;;5068320;28;20166;-42
2022/09/16 04:42:36;;;;;;;3.00;1.70;;;19.50;61.70;20.50;100177.00;;;;5062932;28;20197;-42
2022/09/16 04:45:03;;;;;;;2.00;1.63;;;19.40;61.50;20.50;100176.00;;;;5056966;28;20277;-42
2022/09/16 04:47:28;;;;;;;1.80;1.60;;;19.50;61.70;20.50;100184.00;;;;5047717;28;20186;-43
2022/09/16 04:49:54;;;;;;;1.73;1.40;;;19.40;61.50;20.50;100193.00;;;;5050359;28;20178;-42
2022/09/16 04:52:20;;;;;;;2.53;1.73;;;19.40;61.50;20.50;100188.00;;;;5051710;28;20202;-42
2022/09/16 04:54:45;;;;;;;2.43;1.53;;;19.40;61.50;20.50;100184.00;;;;5052061;28;20213;-43
2022/09/16 04:57:11;;;;;;;2.20;1.70;;;19.40;61.50;20.50;100185.00;;;;5051481;28;20224;-42
2022/09/16 04:59:37;;;;;;;2.43;1.50;;;19.40;61.50;20.40;100184.00;;;;5052100;28;20667;-42
2022/09/16 05:02:03;;;;;;;1.97;1.57;;;19.40;61.50;20.40;100174.00;;;;5051967;28;20336;-42
2022/09/16 05:04:28;;;;;;;2.50;1.80;;;19.40;61.50;20.40;100185.00;;;;5052037;28;20181;-42
2022/09/16 05:06:54;;;;;;;1.53;1.33;;;19.40;61.50;20.40;100187.00;;;;5051625;28;20221;-43
2022/09/16 05:09:23;;;;;;;2.43;1.47;;;19.40;61.50;20.40;100196.00;;;;5051731;28;20210;-42
2022/09/16 05:11:48;;;;;;;1.80;1.40;;;19.40;61.50;20.40;100191.00;;;;5052186;28;20205;-41
2022/09/16 05:14:16;;;;;;;1.57;1.47;;;19.40;61.50;20.40;100187.00;;;;5053023;28;20555;-43
2022/09/16 05:16:42;;;;;;;2.70;1.93;;;19.40;61.50;20.40;100183.00;;;;5050772;28;20193;-42
2022/09/16 05:19:10;;;;;;;1.50;1.40;;;19.40;61.50;20.40;100179.00;;;;5051183;28;20197;-44
2022/09/16 05:21:36;;;;;;;1.60;1.50;;;19.40;61.50;20.40;100182.00;;;;5051093;28;20630;-42
2022/09/16 05:24:08;;;;;;;1.50;1.40;;;19.30;61.40;20.40;100184.00;;;;5051294;28;20261;-42
2022/09/16 05:26:36;;;;;;;2.60;1.60;;;19.30;61.40;20.40;100187.00;;;;5051746;28;20236;-41
2022/09/16 05:29:10;;;;;;;2.07;1.63;;;19.30;61.40;20.30;100184.00;;;;5051429;28;20299;-43
2022/09/16 05:31:37;;;;;;;1.83;1.70;;;19.30;61.40;20.30;100187.00;;;;5051031;28;20544;-42
2022/09/16 05:34:14;;;;;;;1.90;1.70;;;19.30;61.40;20.30;100182.00;;;;5051412;28;20202;-43
2022/09/16 05:36:42;;;;;;;1.73;1.47;;;19.30;61.40;20.30;100192.00;;;;5049804;28;20627;-42
2022/09/16 05:39:10;;;;;;;1.87;1.70;;;19.30;61.40;20.30;100177.00;;;;5051230;28;20178;-42
2022/09/16 05:41:36;;;;;;;2.47;1.80;;;19.30;61.40;20.30;100176.00;;;;5050800;28;20178;-43
2022/09/16 05:44:01;;;;;;;1.63;1.50;;;19.30;61.50;20.30;100176.00;;;;5051183;28;20305;-43
2022/09/16 05:46:27;;;;;;;2.67;1.80;;;19.30;61.40;20.30;100112.00;;;;5051146;28;20351;-43
2022/09/16 05:48:53;;;;;;;4.60;1.73;;;19.30;61.50;20.30;100189.00;;;;5050926;28;20170;-43
2022/09/16 05:51:20;;;;;;;1.97;1.80;;;19.30;61.50;20.30;100195.00;;;;5051227;28;20321;-42
2022/09/16 05:53:47;;;;;;;3.37;1.87;;;19.30;61.80;20.30;100186.00;;;;5051081;28;20668;-42
2022/09/16 05:56:16;;;;;;;3.77;1.90;;;19.30;61.80;20.30;100187.00;;;;5051196;28;20254;-41
2022/09/16 05:58:41;;;;;;;2.73;1.70;;;19.30;61.80;20.30;100193.00;;;;5051113;28;20205;-43
2022/09/16 06:01:15;;;;;;;3.20;2.00;;;19.30;62.00;20.30;100184.00;;;;5049851;28;20419;-43
2022/09/16 06:03:42;;;;;;;5.17;2.00;;;19.30;61.90;20.30;100176.00;;;;5050654;28;20677;-42
2022/09/16 06:06:24;;;;;;;4.10;1.90;;;19.30;62.10;20.30;100191.00;;;;5051026;28;20559;-42
2022/09/16 06:09:00;;;;;;;7.03;2.00;;;19.30;62.20;20.30;100188.00;;;;5048582;28;20162;-42
2022/09/16 06:11:26;;;;;;;10.10;2.40;;;19.30;62.20;20.30;100191.00;;;;4858893;28;20289;-41
2022/09/16 06:13:56;;;;;;;6.23;2.20;;;19.20;62.10;20.20;100184.00;;;;5071594;28;20224;-41
2022/09/16 06:16:24;;;;;;;3.30;1.90;;;19.20;62.10;20.20;100189.00;;;;5069844;28;20296;-42
2022/09/16 06:18:53;;;;;;;2.47;1.90;;;19.20;62.10;20.20;100189.00;;;;5069742;28;20193;-41
2022/09/16 06:21:19;;;;;;;6.30;2.10;;;19.20;62.90;20.20;100187.00;;;;5069510;28;20193;-43
2022/09/16 06:23:45;;;;;;;3.30;1.77;;;19.30;62.20;20.20;100188.00;;;;5069862;28;20634;-43
2022/09/16 06:26:16;;;;;;;7.80;2.00;;;19.20;62.10;20.20;100195.00;;;;5074110;28;20178;-41
2022/09/16 06:28:42;;;;;;;5.10;1.83;;;19.20;62.10;20.20;100187.00;;;;5087090;28;20174;-41
2022/09/16 06:31:13;;;;;;;4.63;2.00;;;19.20;62.10;20.20;100191.00;;;;5087820;28;20184;-42
2022/09/16 06:33:39;;;;;;;4.17;2.23;;;19.20;62.10;20.20;100199.00;;;;5072665;28;20444;-42
2022/09/16 06:36:06;;;;;;;3.23;1.80;;;19.20;62.10;20.20;100201.00;;;;5070256;28;20226;-42
2022/09/16 06:38:32;;;;;;;2.03;1.57;;;19.20;62.10;20.20;100198.00;;;;5065081;28;20268;-41
2022/09/16 06:41:04;;;;;;;4.30;2.00;;;19.20;62.10;20.20;100200.00;;;;5066005;28;20638;-41
2022/09/16 06:43:29;;;;;;;5.53;1.90;;;19.20;62.10;20.20;100195.00;;;;5070238;28;20235;-42
2022/09/16 06:46:14;;;;;;;3.07;1.87;;;19.20;62.00;20.20;100198.00;;;;5070389;28;20559;-43
2022/09/16 06:48:41;;;;;;;3.07;2.00;;;19.20;62.10;20.20;100185.00;;;;5069718;28;20260;-41
2022/09/16 06:51:10;;;;;;;2.43;1.90;;;19.20;62.10;20.20;100194.00;;;;5069520;28;20607;-43
2022/09/16 06:53:36;;;;;;;1.87;1.60;;;19.20;62.10;20.20;100205.00;;;;5068585;28;20204;-43
2022/09/16 06:56:11;;;;;;;1.67;1.43;;;19.20;62.10;20.20;100199.00;;;;5068315;28;20409;-43
2022/09/16 06:58:38;;;;;;;3.40;1.97;;;19.20;62.10;20.10;100201.00;;;;5069073;28;20168;-41
2022/09/16 07:01:09;;;;;;;2.00;1.67;;;19.20;62.10;20.20;100198.00;;;;5068511;28;20674;-43
2022/09/16 07:03:40;;;;;;;2.50;1.97;;;19.20;62.10;20.10;100197.00;;;;5069093;28;20590;-43
2022/09/16 07:06:06;;;;;;;2.40;1.80;;;19.20;62.10;20.10;100199.00;;;;5069762;28;20667;-42
2022/09/16 07:08:32;;;;;;;4.63;1.90;;;19.10;62.00;20.10;100196.00;;;;5067950;28;20159;-42
2022/09/16 07:11:03;;;;;;;2.10;1.80;;;19.20;62.10;20.10;100199.00;;;;5068037;28;20209;-43
2022/09/16 07:13:29;;;;;;;4.03;1.90;;;19.10;62.10;20.10;100205.00;;;;5067453;28;20202;-47
2022/09/16 07:16:01;;;;;;;2.10;1.90;;;19.20;62.10;20.10;100205.00;;;;5069024;28;20196;-43
2022/09/16 07:18:29;;;;;;;2.17;1.87;;;19.20;62.20;20.10;100196.00;;;;5052435;28;20180;-43
2022/09/16 07:21:03;;;;;;;3.03;1.83;;;19.20;62.10;20.10;100200.00;;;;5068558;28;20705;-43
2022/09/16 07:23:31;;;;;;;1.97;1.60;;;19.10;62.10;20.10;100204.00;;;;5069362;28;20605;-43
2022/09/16 07:26:01;;;;;;;2.10;1.70;;;19.10;62.10;20.10;100208.00;;;;5069038;28;20432;-42
2022/09/16 07:28:27;;;;;;;3.60;1.80;;;19.10;62.10;20.10;100204.00;;;;5069652;28;20255;-43
2022/09/16 07:30:52;;;;;;;2.23;1.80;;;19.10;62.10;20.10;100207.00;;;;5068744;28;20169;-42
2022/09/16 07:33:18;;;;;;;2.53;1.90;;;19.10;62.10;20.10;100209.00;;;;5069166;28;20193;-43
2022/09/16 07:35:44;;;;;;;2.53;1.80;;;19.10;62.10;20.10;100213.00;;;;5069257;28;20170;-42
2022/09/16 07:38:10;;;;;;;1.80;1.70;;;19.10;62.00;20.10;100206.00;;;;5068867;28;20158;-42
2022/09/16 07:40:39;;;;;;;1.70;1.60;;;19.10;62.10;20.10;100216.00;;;;5068668;28;20169;-43
2022/09/16 07:43:05;;;;;;;2.10;1.63;;;19.10;62.10;20.10;100216.00;;;;5068791;28;20181;-44
2022/09/16 07:45:31;;;;;;;2.60;1.90;;;19.10;62.10;20.10;100215.00;;;;5069106;28;20177;-41
2022/09/16 07:47:57;;;;;;;2.63;1.87;;;19.10;62.10;20.10;100216.00;;;;5067502;28;20169;-43
2022/09/16 07:50:22;;;;;;;2.23;1.80;;;19.10;62.10;20.10;100220.00;;;;5068562;28;20309;-42
2022/09/16 07:52:53;;;;;;;1.87;1.77;;;19.10;62.10;20.10;100222.00;;;;5068231;28;20189;-42
2022/09/16 07:55:19;;;;;;;3.13;1.70;;;19.10;62.10;20.10;100227.00;;;;5068693;28;20216;-43
2022/09/16 07:57:45;;;;;;;2.23;1.70;;;19.10;62.00;20.00;100231.00;;;;5067680;28;20177;-43
2022/09/16 08:00:11;;;;;;;2.03;1.67;;;19.10;62.10;20.00;100229.00;;;;5068327;28;20177;-43
2022/09/16 08:02:37;;;;;;;1.70;1.60;;;19.10;62.00;20.10;100233.00;;;;4830446;28;20646;-43
2022/09/16 08:05:03;;;;;;;2.20;1.60;;;19.10;62.00;20.10;100229.00;;;;5067413;28;20246;-42
2022/09/16 08:07:29;;;;;;;2.10;1.70;;;19.10;62.00;20.10;100234.00;;;;5068232;28;20196;-43
2022/09/16 08:09:55;;;;;;;2.53;1.60;;;19.10;62.00;20.10;100215.00;;;;5068430;28;20624;-43
2022/09/16 08:12:21;;;;;;;1.80;1.70;;;19.10;62.00;20.10;100227.00;;;;5068312;28;20193;-42
2022/09/16 08:14:46;;;;;;;2.20;1.70;;;19.10;62.00;20.10;100228.00;;;;5068670;28;20370;-41
2022/09/16 08:17:12;;;;;;;1.70;1.60;;;19.10;62.10;20.10;100234.00;;;;5068102;28;20165;-42
2022/09/16 08:19:39;;;;;;;2.10;1.37;;;19.10;62.00;20.00;100224.00;;;;5067979;28;20659;-42
2022/09/16 08:22:04;;;;;;;1.93;1.73;;;19.10;62.10;20.00;100245.00;;;;5068450;28;20197;-41
2022/09/16 08:24:30;;;;;;;1.63;1.53;;;19.10;62.10;20.00;100243.00;;;;5067962;28;20241;-42
2022/09/16 08:26:56;;;;;;;1.67;1.57;;;19.00;62.00;20.00;100245.00;;;;5067968;28;20177;-42
2022/09/16 08:29:24;;;;;;;1.67;1.57;;;19.10;62.10;20.00;100242.00;;;;5068198;28;20519;-42
2022/09/16 08:31:50;;;;;;;2.03;1.57;;;19.00;62.00;20.00;100240.00;;;;5068112;28;20189;-42
2022/09/16 08:34:16;;;;;;;2.77;1.70;;;19.10;62.10;20.00;100246.00;;;;5066819;28;20204;-43
2022/09/16 08:36:41;;;;;;;2.00;1.63;;;19.10;62.10;20.00;100255.00;;;;5068400;28;20173;-42
2022/09/16 08:39:09;;;;;;;1.70;1.57;;;19.10;62.10;20.00;100243.00;;;;5068217;28;20667;-41
2022/09/16 08:42:08;;;;;;;1.73;1.53;;;19.00;62.10;20.00;100245.00;;;;5068262;28;20750;-45
2022/09/16 08:44:56;;;;;;;1.53;1.43;;;19.10;62.20;20.00;100243.00;;;;5038738;28;20196;-42
2022/09/16 08:47:47;;;;;;;1.50;1.40;;;19.10;62.30;20.00;100247.00;;;;5066946;28;20169;-43
2022/09/16 08:50:36;;;;;;;1.67;1.40;;;19.10;62.30;20.00;100246.00;;;;5066859;28;20161;-41
2022/09/16 08:53:04;;;;;;;1.63;1.53;;;19.10;62.30;20.00;100248.00;;;;5050666;28;20600;-41
2022/09/16 08:55:46;;;;;;;1.60;1.40;;;19.00;62.20;20.00;100246.00;;;;5067128;28;20205;-42
2022/09/16 08:58:23;;;;;;;1.80;1.57;;;19.00;62.10;20.00;100241.00;;;;5066868;28;20197;-43
2022/09/16 09:00:57;;;;;;;1.47;1.37;;;19.00;62.30;19.80;100204.00;;;;5066700;28;20419;-43
2022/09/16 09:03:33;;;;;;;1.70;1.60;;;19.10;61.90;20.00;100241.00;;;;5017342;28;20165;-43
2022/09/16 09:05:59;;;;;;;1.40;1.30;;;19.10;62.40;20.00;100239.00;;;;5086371;28;20211;-43
2022/09/16 09:08:46;;;;;;;1.60;1.50;;;19.00;62.30;20.00;100247.00;;;;5086559;28;20626;-42
2022/09/16 09:11:27;;;;;;;1.73;1.30;;;19.00;62.30;20.00;100245.00;;;;5087923;28;20211;-44
2022/09/16 09:14:02;;;;;;;1.43;1.33;;;19.00;62.30;20.00;100246.00;;;;5087031;28;20200;-42
2022/09/16 09:17:13;;;;;;;1.93;1.70;;;19.00;62.40;20.00;100243.00;;;;5086824;28;20162;-42
2022/09/16 09:20:23;;;;;;;1.67;1.57;;;19.10;62.50;20.00;100245.00;;;;5087146;28;20161;-42
2022/09/16 09:22:52;;;;;;;1.60;1.40;;;19.00;62.50;19.90;100245.00;;;;5087189;28;20271;-42
2022/09/16 09:25:35;;;;;;;1.50;1.40;;;19.10;62.60;20.00;100244.00;;;;5088067;28;20191;-42
2022/09/16 09:28:11;;;;;;;1.83;1.63;;;19.10;62.50;19.90;100239.00;;;;5086690;28;20263;-41
2022/09/16 09:30:39;;;;;;;1.80;1.70;;;19.00;62.50;20.00;100248.00;;;;5070560;28;20173;-42
2022/09/16 09:33:42;;;;;;;1.87;1.47;;;19.00;62.50;20.00;100237.00;;;;5089037;28;20203;-41
2022/09/16 09:36:30;;;;;;;1.53;1.43;;;19.00;62.50;20.00;100246.00;;;;5103990;28;20184;-42
2022/09/16 09:39:17;;;;;;;1.43;1.33;;;19.00;62.60;20.00;100239.00;;;;5105528;28;20161;-42
2022/09/16 09:41:48;;;;;;;1.60;1.50;;;19.00;62.70;20.00;100235.00;;;;5092544;28;20188;-42
2022/09/16 09:44:41;;;;;;;1.30;1.30;;;19.00;62.70;20.00;100242.00;;;;5090991;28;20176;-42
2022/09/16 09:47:33;;;;;;;1.50;1.40;;;19.00;62.70;20.00;100242.00;;;;5075623;28;20172;-41
2022/09/16 09:50:11;;;;;;;1.90;1.43;;;19.00;62.70;20.00;100234.00;;;;5074351;28;20237;-42
2022/09/16 09:52:47;;;;;;;1.53;1.20;;;19.00;62.70;20.00;100243.00;;;;5090038;28;20279;-43
2022/09/16 09:55:19;;;;;;;1.40;1.30;;;19.10;62.80;20.00;100240.00;;;;5074330;28;20624;-42
2022/09/16 09:57:56;;;;;;;1.70;1.60;;;19.00;62.70;20.00;100232.00;;;;5050814;28;20166;-41
2022/09/16 10:00:22;;;;;;;1.30;1.20;;;19.10;62.80;20.00;100238.00;;;;5056976;28;20693;-41
2022/09/16 10:02:48;;;;;;;1.53;1.43;;;19.00;62.70;20.00;100225.00;;;;4957422;28;20192;-41
2022/09/16 10:05:26;;;;;;;1.43;1.33;;;19.00;62.70;20.00;100226.00;;;;5088693;28;20248;-41
2022/09/16 10:07:55;;;;;;;2.40;1.60;;;19.10;62.80;20.00;100220.00;;;;5050642;28;20257;-43
2022/09/16 10:10:23;;;;;;;2.23;1.53;;;19.10;62.90;20.00;100233.00;;;;5049859;28;20209;-43
2022/09/16 10:12:48;;;;;;;1.50;1.40;;;19.10;63.10;20.00;100224.00;;;;5049815;28;20197;-42
2022/09/16 10:15:27;;;;;;;1.63;1.40;;;19.10;63.10;20.00;100226.00;;;;5049292;28;20202;-42
2022/09/16 10:17:54;;;;;;;2.53;1.20;;;19.10;63.10;20.00;100219.00;;;;5049761;28;20626;-43
2022/09/16 10:20:28;;;;;;;3.30;1.63;;;19.10;63.10;20.00;100227.00;;;;5049666;28;20695;-43
2022/09/16 10:23:00;;;;;;;4.10;2.03;;;19.10;63.10;20.00;100212.00;;;;5049717;28;20193;-42
2022/09/16 10:25:26;;;;;;;6.23;2.33;;;19.10;63.70;20.00;100209.00;;;;5049876;28;20514;-42
2022/09/16 10:28:00;;;;;;;7.30;2.30;;;19.10;65.20;20.00;100215.00;;;;5049802;28;20234;-43
2022/09/16 10:30:32;;;;;;;8.70;2.50;;;19.10;66.30;20.00;100216.00;;;;5050993;28;20242;-43
2022/09/16 10:33:11;;;;;;;12.37;2.77;;;19.10;66.50;20.00;100203.00;;;;5049214;28;20190;-43
2022/09/16 10:35:39;;;;;;;8.40;2.47;;;19.20;67.10;20.00;100212.00;;;;5070683;28;20631;-43
2022/09/16 10:38:16;;;;;;;6.63;2.40;;;19.20;67.40;20.10;100211.00;;;;5037582;28;20173;-43
2022/09/16 10:41:00;;;;;;;12.00;2.37;;;19.20;67.30;20.10;100224.00;;;;5054061;28;20624;-44
2022/09/16 10:43:26;;;;;;;9.23;2.63;;;19.20;67.40;20.10;100233.00;;;;5068711;28;20184;-43
2022/09/16 10:45:52;;;;;;;18.00;2.70;;;19.30;67.50;20.10;100237.00;;;;5069803;28;20173;-42
2022/09/16 10:48:26;;;;;;;11.70;2.60;;;19.30;67.80;20.10;100245.00;;;;5068470;28;20647;-41
2022/09/16 10:51:01;;;;;;;7.60;2.20;;;19.20;68.30;20.10;100237.00;;;;5053233;28;20178;-41
2022/09/16 10:53:37;;;;;;;3.67;2.00;;;19.30;67.90;20.10;100236.00;;;;5052614;28;20217;-42
2022/09/16 10:56:37;;;;;;;5.53;2.10;;;19.30;67.50;20.10;100236.00;;;;5069621;28;20158;-42
2022/09/16 10:59:10;;;;;;;9.30;2.33;;;19.20;67.30;20.10;100230.00;;;;5034859;28;20185;-43
2022/09/16 11:02:14;;;;;;;6.27;2.03;;;19.30;67.30;20.10;100225.00;;;;4945168;28;20288;-42
2022/09/16 11:05:11;;;;;;;7.27;2.20;;;19.20;67.40;20.10;100221.00;;;;5068714;28;20272;-42
2022/09/16 11:07:50;;;;;;;6.13;2.30;;;19.20;67.20;20.10;100201.00;;;;5060452;28;20181;-43
2022/09/16 11:10:34;;;;;;;5.27;1.93;;;19.20;67.00;20.10;100233.00;;;;5067337;28;20192;-44
2022/09/16 11:13:35;;;;;;;5.77;1.80;;;19.20;66.90;20.10;100239.00;;;;5067627;28;20189;-42